Jacqueline C — 2BON5 — position and weather

sailwx.info

Track history (hours):
 
Tides and Currents Weather Stations Pressure Air Temp Water Temp Dewpoint Dewpoint Depression Visibility Wind Speed Wind Dir Waves Ship Positions

Jacqueline C

Last reported at 2017-Sep-19 11:57 UTC. Time now 2017-Sep-19 18:35 UTC.
Position N 45°32' W 073°32'.

Length 138 m; draft 8 m.

Type: Ship. MMSI: 235067944.

Date/timePositionNaut miles runAvg speedWind from/ knotsBaromVisibWave heightAir tempDewpointWater temp
2017-Sep-19 11:57N 45°32' W 073°32'2 2.5
2017-Sep-19 11:01N 45°30' W 073°31'1 1.5
2017-Sep-19 10:30N 45°29' W 073°31'2 3.1
2017-Sep-19 10:00N 45°27' W 073°30'3 6.1
2017-Sep-19 09:30N 45°25' W 073°32'1 2.9
2017-Sep-19 09:01N 45°24' W 073°34'0 0.9
2017-Sep-19 08:31N 45°24' W 073°35'2 4.6
2017-Sep-19 08:00N 45°24' W 073°38'3 6.2
2017-Sep-19 07:30N 45°25' W 073°42'5 9.6
2017-Sep-19 07:00N 45°23' W 073°48'612.1
2017-Sep-19 06:30N 45°19' W 073°55'0 0.5
2017-Sep-19 06:00N 45°19' W 073°55'1 1.5
2017-Sep-19 05:30N 45°18' W 073°56'0 0.5
2017-Sep-19 05:00N 45°18' W 073°56'2 3.3
2017-Sep-19 04:30N 45°16' W 073°57'3 6.9
2017-Sep-19 04:00N 45°14' W 074°00'5 9.1
2017-Sep-19 03:30N 45°13' W 074°07'  
2017-Sep-14 05:08N 45°14' W 083°03'513.4
2017-Sep-14 04:48N 45°18' W 083°05'413.0
2017-Sep-14 04:29N 45°22' W 083°08'613.2
2017-Sep-14 04:00N 45°26' W 083°14'713.3
2017-Sep-14 03:31N 45°31' W 083°20'713.3
2017-Sep-14 03:01N 45°36' W 083°27'713.4
2017-Sep-14 02:30N 45°41' W 083°33'613.1
2017-Sep-14 02:01N 45°46' W 083°40'713.1
2017-Sep-14 01:29N 45°51' W 083°46'1410.8
2017-Sep-14 00:15N 46°03' W 083°56'1010.7
2017-Sep-13 23:18N 46°10' W 084°05'  
Track history (hours):
 
Tides and Currents Weather Stations Pressure Air Temp Water Temp Dewpoint Dewpoint Depression Visibility Wind Speed Wind Dir Waves Ship Positions

Jacqueline C

Last reported at 2017-Sep-19 11:57 UTC. Time now 2017-Sep-19 18:35 UTC.
Position N 45°32' W 073°32'.

Length 138 m; draft 8 m.

Type: Ship. MMSI: 235067944.

Date/timePositionNaut miles runAvg speedWind from/ knotsBaromVisibWave heightAir tempDewpointWater temp
2017-Sep-19 11:57N 45°32' W 073°32'2 2.5
2017-Sep-19 11:01N 45°30' W 073°31'1 1.5
2017-Sep-19 10:30N 45°29' W 073°31'2 3.1
2017-Sep-19 10:00N 45°27' W 073°30'3 6.1
2017-Sep-19 09:30N 45°25' W 073°32'1 2.9
2017-Sep-19 09:01N 45°24' W 073°34'0 0.9
2017-Sep-19 08:31N 45°24' W 073°35'2 4.6
2017-Sep-19 08:00N 45°24' W 073°38'3 6.2
2017-Sep-19 07:30N 45°25' W 073°42'5 9.6
2017-Sep-19 07:00N 45°23' W 073°48'612.1
2017-Sep-19 06:30N 45°19' W 073°55'0 0.5
2017-Sep-19 06:00N 45°19' W 073°55'1 1.5
2017-Sep-19 05:30N 45°18' W 073°56'0 0.5
2017-Sep-19 05:00N 45°18' W 073°56'2 3.3
2017-Sep-19 04:30N 45°16' W 073°57'3 6.9
2017-Sep-19 04:00N 45°14' W 074°00'5 9.1
2017-Sep-19 03:30N 45°13' W 074°07'  
2017-Sep-14 05:08N 45°14' W 083°03'513.4
2017-Sep-14 04:48N 45°18' W 083°05'413.0
2017-Sep-14 04:29N 45°22' W 083°08'613.2
2017-Sep-14 04:00N 45°26' W 083°14'713.3
2017-Sep-14 03:31N 45°31' W 083°20'713.3
2017-Sep-14 03:01N 45°36' W 083°27'713.4
2017-Sep-14 02:30N 45°41' W 083°33'613.1
2017-Sep-14 02:01N 45°46' W 083°40'713.1
2017-Sep-14 01:29N 45°51' W 083°46'1410.8
2017-Sep-14 00:15N 46°03' W 083°56'1010.7
2017-Sep-13 23:18N 46°10' W 084°05'  

Dump ship's entire track history